sensor_id;sensor_type;location;lat;lon;timestamp;pressure;altitude;pressure_sealevel;temperature;humidity
68873;BME280;55907;50.806;12.882;2022-09-01T00:00:26;979.0;;;15.3;79.5
68873;BME280;55907;50.806;12.882;2022-09-01T00:03:28;979.0;;;15.2;80.3
68873;BME280;55907;50.806;12.882;2022-09-01T00:06:31;979.0;;;15.2;80.8
68873;BME280;55907;50.806;12.882;2022-09-01T00:09:31;979.0;;;15.1;80.8
68873;BME280;55907;50.806;12.882;2022-09-01T00:12:32;979.0;;;15.1;81.4
68873;BME280;55907;50.806;12.882;2022-09-01T00:15:34;979.1;;;15.0;81.9
68873;BME280;55907;50.806;12.882;2022-09-01T00:18:35;979.0;;;14.9;81.8
68873;BME280;55907;50.806;12.882;2022-09-01T00:24:39;979.0;;;14.8;82.6
68873;BME280;55907;50.806;12.882;2022-09-01T00:27:39;979.0;;;14.7;83.2
68873;BME280;55907;50.806;12.882;2022-09-01T00:30:41;979.0;;;14.6;83.6
68873;BME280;55907;50.806;12.882;2022-09-01T00:33:42;979.0;;;14.6;83.7
68873;BME280;55907;50.806;12.882;2022-09-01T00:36:43;979.0;;;14.6;82.4
68873;BME280;55907;50.806;12.882;2022-09-01T00:39:45;979.0;;;14.6;83.3
68873;BME280;55907;50.806;12.882;2022-09-01T00:42:47;978.9;;;14.6;82.8
68873;BME280;55907;50.806;12.882;2022-09-01T00:45:48;978.9;;;14.5;83.2
68873;BME280;55907;50.806;12.882;2022-09-01T00:48:54;978.9;;;14.4;83.5
68873;BME280;55907;50.806;12.882;2022-09-01T00:51:54;978.9;;;14.4;83.8
68873;BME280;55907;50.806;12.882;2022-09-01T00:54:56;978.9;;;14.3;84.0
68873;BME280;55907;50.806;12.882;2022-09-01T00:57:54;978.9;;;14.2;84.3
68873;BME280;55907;50.806;12.882;2022-09-01T01:03:57;978.9;;;14.2;85.1
68873;BME280;55907;50.806;12.882;2022-09-01T01:06:59;978.9;;;14.1;85.1
68873;BME280;55907;50.806;12.882;2022-09-01T01:10:00;978.9;;;14.1;85.3
68873;BME280;55907;50.806;12.882;2022-09-01T01:13:05;978.9;;;14.1;85.3
68873;BME280;55907;50.806;12.882;2022-09-01T01:16:03;978.9;;;14.1;85.5
68873;BME280;55907;50.806;12.882;2022-09-01T01:19:05;978.9;;;14.1;86.0
68873;BME280;55907;50.806;12.882;2022-09-01T01:22:09;978.9;;;14.1;86.1
68873;BME280;55907;50.806;12.882;2022-09-01T01:25:07;978.9;;;14.1;86.6
68873;BME280;55907;50.806;12.882;2022-09-01T01:28:12;979.0;;;14.2;86.1
68873;BME280;55907;50.806;12.882;2022-09-01T01:31:12;978.9;;;14.3;85.2
68873;BME280;55907;50.806;12.882;2022-09-01T01:34:11;978.9;;;14.3;85.7
68873;BME280;55907;50.806;12.882;2022-09-01T01:37:13;978.9;;;14.3;86.0
68873;BME280;55907;50.806;12.882;2022-09-01T01:40:17;978.9;;;14.3;86.1
68873;BME280;55907;50.806;12.882;2022-09-01T01:43:16;978.9;;;14.3;86.0
68873;BME280;55907;50.806;12.882;2022-09-01T01:46:18;978.9;;;14.3;86.5
68873;BME280;55907;50.806;12.882;2022-09-01T01:49:21;978.9;;;14.3;86.6
68873;BME280;55907;50.806;12.882;2022-09-01T01:52:20;978.8;;;14.3;86.5
68873;BME280;55907;50.806;12.882;2022-09-01T01:55:22;978.9;;;14.3;86.4
68873;BME280;55907;50.806;12.882;2022-09-01T01:58:23;978.9;;;14.4;85.9
68873;BME280;55907;50.806;12.882;2022-09-01T02:01:27;978.9;;;14.4;86.0
68873;BME280;55907;50.806;12.882;2022-09-01T02:04:26;978.9;;;14.4;86.4
68873;BME280;55907;50.806;12.882;2022-09-01T02:07:27;978.9;;;14.4;86.2
68873;BME280;55907;50.806;12.882;2022-09-01T02:10:32;978.9;;;14.4;86.7
68873;BME280;55907;50.806;12.882;2022-09-01T02:13:31;978.9;;;14.4;86.7
68873;BME280;55907;50.806;12.882;2022-09-01T02:16:33;978.9;;;14.4;86.9
68873;BME280;55907;50.806;12.882;2022-09-01T02:19:33;978.9;;;14.4;86.6
68873;BME280;55907;50.806;12.882;2022-09-01T02:22:35;978.8;;;14.4;86.4
68873;BME280;55907;50.806;12.882;2022-09-01T02:25:37;978.8;;;14.4;86.1
68873;BME280;55907;50.806;12.882;2022-09-01T02:28:39;978.8;;;14.4;86.0
68873;BME280;55907;50.806;12.882;2022-09-01T02:31:39;978.8;;;14.4;85.8
68873;BME280;55907;50.806;12.882;2022-09-01T02:34:40;978.8;;;14.4;86.3
68873;BME280;55907;50.806;12.882;2022-09-01T02:37:42;978.7;;;14.4;85.5
68873;BME280;55907;50.806;12.882;2022-09-01T02:40:43;978.7;;;14.4;86.1
68873;BME280;55907;50.806;12.882;2022-09-01T02:46:47;978.7;;;14.3;85.3
68873;BME280;55907;50.806;12.882;2022-09-01T02:49:48;978.7;;;14.3;85.4
68873;BME280;55907;50.806;12.882;2022-09-01T02:55:50;978.7;;;14.2;85.1
68873;BME280;55907;50.806;12.882;2022-09-01T02:58:52;978.7;;;14.2;85.1
68873;BME280;55907;50.806;12.882;2022-09-01T03:01:53;978.7;;;14.1;85.5
68873;BME280;55907;50.806;12.882;2022-09-01T03:04:55;978.7;;;14.0;85.7
68873;BME280;55907;50.806;12.882;2022-09-01T03:07:58;978.7;;;13.9;86.1
68873;BME280;55907;50.806;12.882;2022-09-01T03:10:57;978.7;;;13.9;86.4
68873;BME280;55907;50.806;12.882;2022-09-01T03:13:59;978.7;;;13.8;86.8
68873;BME280;55907;50.806;12.882;2022-09-01T03:17:00;978.7;;;13.7;87.2
68873;BME280;55907;50.806;12.882;2022-09-01T03:20:02;978.7;;;13.7;87.4
68873;BME280;55907;50.806;12.882;2022-09-01T03:26:05;978.7;;;13.6;87.9
68873;BME280;55907;50.806;12.882;2022-09-01T03:29:07;978.7;;;13.6;87.9
68873;BME280;55907;50.806;12.882;2022-09-01T03:32:08;978.7;;;13.6;88.0
68873;BME280;55907;50.806;12.882;2022-09-01T03:35:10;978.7;;;13.6;88.3
68873;BME280;55907;50.806;12.882;2022-09-01T03:38:11;978.7;;;13.6;88.7
68873;BME280;55907;50.806;12.882;2022-09-01T03:41:13;978.7;;;13.6;88.7
68873;BME280;55907;50.806;12.882;2022-09-01T03:44:14;978.7;;;13.6;88.7
68873;BME280;55907;50.806;12.882;2022-09-01T03:47:15;978.7;;;13.5;89.3
68873;BME280;55907;50.806;12.882;2022-09-01T03:50:19;978.6;;;13.5;89.5
68873;BME280;55907;50.806;12.882;2022-09-01T03:53:20;978.7;;;13.5;89.4
68873;BME280;55907;50.806;12.882;2022-09-01T03:56:21;978.6;;;13.5;89.5
68873;BME280;55907;50.806;12.882;2022-09-01T03:59:21;978.6;;;13.5;89.2
68873;BME280;55907;50.806;12.882;2022-09-01T04:02:22;978.6;;;13.5;89.1
68873;BME280;55907;50.806;12.882;2022-09-01T04:05:26;978.6;;;13.5;88.3
68873;BME280;55907;50.806;12.882;2022-09-01T04:08:26;978.6;;;13.5;88.2
68873;BME280;55907;50.806;12.882;2022-09-01T04:11:27;978.6;;;13.4;88.5
68873;BME280;55907;50.806;12.882;2022-09-01T04:14:28;978.7;;;13.4;89.2
68873;BME280;55907;50.806;12.882;2022-09-01T04:17:30;978.7;;;13.4;89.4
68873;BME280;55907;50.806;12.882;2022-09-01T04:20:31;978.6;;;13.4;89.8
68873;BME280;55907;50.806;12.882;2022-09-01T04:23:34;978.7;;;13.4;90.0
68873;BME280;55907;50.806;12.882;2022-09-01T04:26:34;978.7;;;13.4;89.2
68873;BME280;55907;50.806;12.882;2022-09-01T04:29:36;978.7;;;13.4;88.6
68873;BME280;55907;50.806;12.882;2022-09-01T04:32:37;978.7;;;13.4;88.9
68873;BME280;55907;50.806;12.882;2022-09-01T04:35:38;978.7;;;13.4;88.9
68873;BME280;55907;50.806;12.882;2022-09-01T04:38:40;978.7;;;13.5;88.6
68873;BME280;55907;50.806;12.882;2022-09-01T04:41:43;978.7;;;13.6;87.9
68873;BME280;55907;50.806;12.882;2022-09-01T04:44:43;978.8;;;13.6;87.9
68873;BME280;55907;50.806;12.882;2022-09-01T04:47:44;978.8;;;13.6;87.8
68873;BME280;55907;50.806;12.882;2022-09-01T04:50:46;978.7;;;13.8;87.1
68873;BME280;55907;50.806;12.882;2022-09-01T04:53:47;978.7;;;13.9;86.8
68873;BME280;55907;50.806;12.882;2022-09-01T04:56:50;978.7;;;13.9;87.0
68873;BME280;55907;50.806;12.882;2022-09-01T04:59:50;978.7;;;13.9;87.1
68873;BME280;55907;50.806;12.882;2022-09-01T05:02:53;978.7;;;14.0;86.8
68873;BME280;55907;50.806;12.882;2022-09-01T05:05:53;978.7;;;14.0;86.7
68873;BME280;55907;50.806;12.882;2022-09-01T05:08:55;978.7;;;14.1;86.7
68873;BME280;55907;50.806;12.882;2022-09-01T05:11:57;978.7;;;14.2;86.0
68873;BME280;55907;50.806;12.882;2022-09-01T05:14:57;978.7;;;14.2;85.5
68873;BME280;55907;50.806;12.882;2022-09-01T05:17:59;978.7;;;14.2;85.1
68873;BME280;55907;50.806;12.882;2022-09-01T05:21:04;978.7;;;14.3;84.8
68873;BME280;55907;50.806;12.882;2022-09-01T05:24:02;978.7;;;14.3;84.6
68873;BME280;55907;50.806;12.882;2022-09-01T05:27:04;978.8;;;14.3;84.7
68873;BME280;55907;50.806;12.882;2022-09-01T05:30:06;978.8;;;14.4;84.3
68873;BME280;55907;50.806;12.882;2022-09-01T05:33:07;978.8;;;14.4;84.2
68873;BME280;55907;50.806;12.882;2022-09-01T05:36:09;978.8;;;14.5;83.8
68873;BME280;55907;50.806;12.882;2022-09-01T05:39:09;978.8;;;14.6;84.1
68873;BME280;55907;50.806;12.882;2022-09-01T05:42:10;978.8;;;14.6;84.3
68873;BME280;55907;50.806;12.882;2022-09-01T05:45:12;978.8;;;14.7;84.0
68873;BME280;55907;50.806;12.882;2022-09-01T05:48:13;978.8;;;14.9;83.7
68873;BME280;55907;50.806;12.882;2022-09-01T05:51:17;978.8;;;15.0;83.1
68873;BME280;55907;50.806;12.882;2022-09-01T05:54:18;978.8;;;15.1;82.0
68873;BME280;55907;50.806;12.882;2022-09-01T05:57:18;978.8;;;15.2;81.4
68873;BME280;55907;50.806;12.882;2022-09-01T06:00:19;978.8;;;15.3;81.5
68873;BME280;55907;50.806;12.882;2022-09-01T06:03:21;978.7;;;15.4;80.8
68873;BME280;55907;50.806;12.882;2022-09-01T06:06:26;978.8;;;15.5;80.7
68873;BME280;55907;50.806;12.882;2022-09-01T06:09:23;978.8;;;15.6;80.2
68873;BME280;55907;50.806;12.882;2022-09-01T06:12:25;978.8;;;15.6;79.9
68873;BME280;55907;50.806;12.882;2022-09-01T06:15:26;978.8;;;15.8;79.2
68873;BME280;55907;50.806;12.882;2022-09-01T06:18:28;978.8;;;15.9;79.2
68873;BME280;55907;50.806;12.882;2022-09-01T06:21:29;978.8;;;16.0;78.9
68873;BME280;55907;50.806;12.882;2022-09-01T06:24:31;978.8;;;16.2;77.8
68873;BME280;55907;50.806;12.882;2022-09-01T06:27:32;978.8;;;16.4;75.7
68873;BME280;55907;50.806;12.882;2022-09-01T06:30:33;978.8;;;16.5;74.4
68873;BME280;55907;50.806;12.882;2022-09-01T06:33:35;978.8;;;16.5;75.1
68873;BME280;55907;50.806;12.882;2022-09-01T06:36:37;978.8;;;16.7;74.3
68873;BME280;55907;50.806;12.882;2022-09-01T06:39:38;978.9;;;16.8;73.6
68873;BME280;55907;50.806;12.882;2022-09-01T06:42:39;978.9;;;16.9;73.4
68873;BME280;55907;50.806;12.882;2022-09-01T06:45:43;978.9;;;17.0;73.2
68873;BME280;55907;50.806;12.882;2022-09-01T06:48:42;979.0;;;17.1;72.6
68873;BME280;55907;50.806;12.882;2022-09-01T06:51:43;978.9;;;17.2;72.1
68873;BME280;55907;50.806;12.882;2022-09-01T06:54:45;979.0;;;17.2;71.6
68873;BME280;55907;50.806;12.882;2022-09-01T06:57:46;979.0;;;17.3;71.8
68873;BME280;55907;50.806;12.882;2022-09-01T07:00:48;979.1;;;17.3;72.3
68873;BME280;55907;50.806;12.882;2022-09-01T07:03:51;979.1;;;17.4;72.0
68873;BME280;55907;50.806;12.882;2022-09-01T07:06:51;979.1;;;17.4;71.3
68873;BME280;55907;50.806;12.882;2022-09-01T07:09:52;979.0;;;17.5;71.2
68873;BME280;55907;50.806;12.882;2022-09-01T07:12:55;979.0;;;17.5;70.7
68873;BME280;55907;50.806;12.882;2022-09-01T07:15:55;979.0;;;17.6;70.6
68873;BME280;55907;50.806;12.882;2022-09-01T07:18:57;979.0;;;17.8;69.5
68873;BME280;55907;50.806;12.882;2022-09-01T07:21:58;979.0;;;17.9;69.2
68873;BME280;55907;50.806;12.882;2022-09-01T07:24:59;979.0;;;18.0;68.5
68873;BME280;55907;50.806;12.882;2022-09-01T07:28:01;979.1;;;18.1;68.1
68873;BME280;55907;50.806;12.882;2022-09-01T07:31:02;979.1;;;18.3;67.5
68873;BME280;55907;50.806;12.882;2022-09-01T07:37:05;979.1;;;18.6;66.1
68873;BME280;55907;50.806;12.882;2022-09-01T07:40:09;979.1;;;18.7;64.4
68873;BME280;55907;50.806;12.882;2022-09-01T07:43:15;979.1;;;18.9;64.5
68873;BME280;55907;50.806;12.882;2022-09-01T07:46:10;979.1;;;19.0;63.8
68873;BME280;55907;50.806;12.882;2022-09-01T07:49:10;979.1;;;19.1;63.5
68873;BME280;55907;50.806;12.882;2022-09-01T07:52:12;979.1;;;19.2;62.2
68873;BME280;55907;50.806;12.882;2022-09-01T07:55:15;979.1;;;19.4;61.2
68873;BME280;55907;50.806;12.882;2022-09-01T07:58:15;979.2;;;19.5;58.2
68873;BME280;55907;50.806;12.882;2022-09-01T08:01:18;979.2;;;19.6;59.8
68873;BME280;55907;50.806;12.882;2022-09-01T08:04:17;979.2;;;19.6;57.1
68873;BME280;55907;50.806;12.882;2022-09-01T08:07:19;979.2;;;19.7;58.4
68873;BME280;55907;50.806;12.882;2022-09-01T08:10:20;979.2;;;19.9;58.8
68873;BME280;55907;50.806;12.882;2022-09-01T08:13:22;979.2;;;20.0;59.2
68873;BME280;55907;50.806;12.882;2022-09-01T08:16:23;979.2;;;20.0;57.9
68873;BME280;55907;50.806;12.882;2022-09-01T08:19:24;979.2;;;20.1;56.3
68873;BME280;55907;50.806;12.882;2022-09-01T08:22:26;979.2;;;20.2;56.5
68873;BME280;55907;50.806;12.882;2022-09-01T08:25:28;979.2;;;20.3;56.5
68873;BME280;55907;50.806;12.882;2022-09-01T08:28:28;979.2;;;20.4;55.5
68873;BME280;55907;50.806;12.882;2022-09-01T08:31:30;979.2;;;20.4;54.1
68873;BME280;55907;50.806;12.882;2022-09-01T08:34:32;979.2;;;20.5;54.3
68873;BME280;55907;50.806;12.882;2022-09-01T08:37:33;979.2;;;20.7;52.4
68873;BME280;55907;50.806;12.882;2022-09-01T08:40:35;979.2;;;20.8;52.5
68873;BME280;55907;50.806;12.882;2022-09-01T08:43:44;979.2;;;20.9;51.5
68873;BME280;55907;50.806;12.882;2022-09-01T08:46:38;979.2;;;21.0;50.4
68873;BME280;55907;50.806;12.882;2022-09-01T08:49:39;979.3;;;21.1;51.4
68873;BME280;55907;50.806;12.882;2022-09-01T08:52:41;979.3;;;21.1;50.0
68873;BME280;55907;50.806;12.882;2022-09-01T08:55:44;979.3;;;21.4;50.6
68873;BME280;55907;50.806;12.882;2022-09-01T08:58:42;979.3;;;21.8;48.6
68873;BME280;55907;50.806;12.882;2022-09-01T09:01:48;979.3;;;22.4;49.2
68873;BME280;55907;50.806;12.882;2022-09-01T09:04:52;979.3;;;22.9;49.4
68873;BME280;55907;50.806;12.882;2022-09-01T09:07:56;979.3;;;23.3;47.5
68873;BME280;55907;50.806;12.882;2022-09-01T09:10:54;979.4;;;24.0;46.5
68873;BME280;55907;50.806;12.882;2022-09-01T09:13:56;979.4;;;24.2;45.7
68873;BME280;55907;50.806;12.882;2022-09-01T09:16:52;979.4;;;24.5;45.1
68873;BME280;55907;50.806;12.882;2022-09-01T09:19:52;979.4;;;25.0;43.0
68873;BME280;55907;50.806;12.882;2022-09-01T09:22:53;979.3;;;25.7;41.4
68873;BME280;55907;50.806;12.882;2022-09-01T09:25:54;979.4;;;26.4;39.5
68873;BME280;55907;50.806;12.882;2022-09-01T09:28:56;979.4;;;27.2;38.9
68873;BME280;55907;50.806;12.882;2022-09-01T09:32:04;979.4;;;27.0;39.6
68873;BME280;55907;50.806;12.882;2022-09-01T09:35:16;979.4;;;26.4;39.2
68873;BME280;55907;50.806;12.882;2022-09-01T09:38:19;979.4;;;25.6;39.9
68873;BME280;55907;50.806;12.882;2022-09-01T09:41:04;979.5;;;24.6;41.2
68873;BME280;55907;50.806;12.882;2022-09-01T09:44:06;979.4;;;24.0;42.5
68873;BME280;55907;50.806;12.882;2022-09-01T09:47:04;979.4;;;23.7;43.2
68873;BME280;55907;50.806;12.882;2022-09-01T09:50:17;979.4;;;23.9;42.4
68873;BME280;55907;50.806;12.882;2022-09-01T09:53:10;979.4;;;23.4;41.9
68873;BME280;55907;50.806;12.882;2022-09-01T09:56:15;979.4;;;23.2;41.8
68873;BME280;55907;50.806;12.882;2022-09-01T09:59:19;979.4;;;23.4;41.8
68873;BME280;55907;50.806;12.882;2022-09-01T10:02:16;979.3;;;23.3;42.4
68873;BME280;55907;50.806;12.882;2022-09-01T10:05:24;979.4;;;23.0;41.7
68873;BME280;55907;50.806;12.882;2022-09-01T10:11:25;979.4;;;24.1;40.5
68873;BME280;55907;50.806;12.882;2022-09-01T10:14:19;979.4;;;24.8;39.2
68873;BME280;55907;50.806;12.882;2022-09-01T10:17:20;979.4;;;24.9;38.5
68873;BME280;55907;50.806;12.882;2022-09-01T10:20:21;979.4;;;24.8;38.2
68873;BME280;55907;50.806;12.882;2022-09-01T10:23:20;979.4;;;24.7;38.5
68873;BME280;55907;50.806;12.882;2022-09-01T10:26:24;979.3;;;25.0;38.5
68873;BME280;55907;50.806;12.882;2022-09-01T10:29:26;979.3;;;25.0;38.1
68873;BME280;55907;50.806;12.882;2022-09-01T10:32:28;979.3;;;25.1;36.9
68873;BME280;55907;50.806;12.882;2022-09-01T10:35:28;979.3;;;25.2;36.7
68873;BME280;55907;50.806;12.882;2022-09-01T10:38:28;979.3;;;25.5;37.5
68873;BME280;55907;50.806;12.882;2022-09-01T10:41:47;979.3;;;25.5;39.1
68873;BME280;55907;50.806;12.882;2022-09-01T10:44:32;979.3;;;25.9;35.0
68873;BME280;55907;50.806;12.882;2022-09-01T10:47:32;979.3;;;25.9;34.6
68873;BME280;55907;50.806;12.882;2022-09-01T10:50:32;979.3;;;25.2;36.6
68873;BME280;55907;50.806;12.882;2022-09-01T10:53:38;979.3;;;24.6;37.4
68873;BME280;55907;50.806;12.882;2022-09-01T10:56:38;979.3;;;24.6;37.3
68873;BME280;55907;50.806;12.882;2022-09-01T10:59:37;979.3;;;24.4;36.5
68873;BME280;55907;50.806;12.882;2022-09-01T11:02:38;979.3;;;24.4;37.9
68873;BME280;55907;50.806;12.882;2022-09-01T11:08:44;979.3;;;24.7;36.7
68873;BME280;55907;50.806;12.882;2022-09-01T11:11:46;979.2;;;25.0;36.8
68873;BME280;55907;50.806;12.882;2022-09-01T11:14:47;979.2;;;25.1;36.0
68873;BME280;55907;50.806;12.882;2022-09-01T11:20:46;979.1;;;24.9;35.7
68873;BME280;55907;50.806;12.882;2022-09-01T11:23:47;979.2;;;25.0;33.8
68873;BME280;55907;50.806;12.882;2022-09-01T11:26:49;979.1;;;25.2;34.0
68873;BME280;55907;50.806;12.882;2022-09-01T11:32:56;979.1;;;25.4;34.3
68873;BME280;55907;50.806;12.882;2022-09-01T11:35:58;979.1;;;25.7;32.6
68873;BME280;55907;50.806;12.882;2022-09-01T11:38:58;979.1;;;25.7;32.2
68873;BME280;55907;50.806;12.882;2022-09-01T11:41:58;979.1;;;25.8;31.6
68873;BME280;55907;50.806;12.882;2022-09-01T11:44:59;979.1;;;25.7;34.0
68873;BME280;55907;50.806;12.882;2022-09-01T11:48:01;979.1;;;25.9;32.9
68873;BME280;55907;50.806;12.882;2022-09-01T11:51:01;979.1;;;26.1;32.9
68873;BME280;55907;50.806;12.882;2022-09-01T11:54:01;979.1;;;26.5;32.3
68873;BME280;55907;50.806;12.882;2022-09-01T11:57:17;979.1;;;26.8;31.6
68873;BME280;55907;50.806;12.882;2022-09-01T12:00:07;979.2;;;26.9;30.8
68873;BME280;55907;50.806;12.882;2022-09-01T12:03:18;979.1;;;27.0;29.0
68873;BME280;55907;50.806;12.882;2022-09-01T12:06:09;979.1;;;26.8;30.6
68873;BME280;55907;50.806;12.882;2022-09-01T12:09:08;979.2;;;26.7;30.8
68873;BME280;55907;50.806;12.882;2022-09-01T12:15:17;979.1;;;26.3;31.8
68873;BME280;55907;50.806;12.882;2022-09-01T12:18:16;979.1;;;26.0;32.7
68873;BME280;55907;50.806;12.882;2022-09-01T12:21:20;979.0;;;26.0;32.2
68873;BME280;55907;50.806;12.882;2022-09-01T12:24:16;979.0;;;25.6;32.7
68873;BME280;55907;50.806;12.882;2022-09-01T12:27:16;979.0;;;25.1;32.4
68873;BME280;55907;50.806;12.882;2022-09-01T12:30:18;979.0;;;24.5;33.1
68873;BME280;55907;50.806;12.882;2022-09-01T12:33:19;979.0;;;23.8;34.8
68873;BME280;55907;50.806;12.882;2022-09-01T12:36:23;979.0;;;23.1;34.2
68873;BME280;55907;50.806;12.882;2022-09-01T12:39:23;978.9;;;22.7;35.9
68873;BME280;55907;50.806;12.882;2022-09-01T12:42:26;979.0;;;22.4;36.5
68873;BME280;55907;50.806;12.882;2022-09-01T12:45:35;979.0;;;22.2;36.9
68873;BME280;55907;50.806;12.882;2022-09-01T12:48:27;978.9;;;22.1;36.3
68873;BME280;55907;50.806;12.882;2022-09-01T12:51:27;978.9;;;22.0;36.4
68873;BME280;55907;50.806;12.882;2022-09-01T12:54:28;978.9;;;22.1;36.5
68873;BME280;55907;50.806;12.882;2022-09-01T12:57:32;979.0;;;22.1;36.5
68873;BME280;55907;50.806;12.882;2022-09-01T13:00:33;978.9;;;22.1;36.6
68873;BME280;55907;50.806;12.882;2022-09-01T13:03:33;978.9;;;22.2;38.1
68873;BME280;55907;50.806;12.882;2022-09-01T13:06:34;978.8;;;22.6;36.5
68873;BME280;55907;50.806;12.882;2022-09-01T13:09:35;978.8;;;23.1;36.0
68873;BME280;55907;50.806;12.882;2022-09-01T13:12:38;978.8;;;23.4;35.4
68873;BME280;55907;50.806;12.882;2022-09-01T13:15:42;978.8;;;23.5;34.6
68873;BME280;55907;50.806;12.882;2022-09-01T13:18:41;978.7;;;23.6;35.2
68873;BME280;55907;50.806;12.882;2022-09-01T13:21:41;978.7;;;23.7;34.9
68873;BME280;55907;50.806;12.882;2022-09-01T13:24:42;978.7;;;23.8;33.9
68873;BME280;55907;50.806;12.882;2022-09-01T13:27:44;978.7;;;24.0;32.8
68873;BME280;55907;50.806;12.882;2022-09-01T13:30:50;978.6;;;24.1;33.3
68873;BME280;55907;50.806;12.882;2022-09-01T13:33:46;978.6;;;24.1;31.2
68873;BME280;55907;50.806;12.882;2022-09-01T13:36:47;978.6;;;24.1;33.2
68873;BME280;55907;50.806;12.882;2022-09-01T13:39:49;978.6;;;24.0;32.4
68873;BME280;55907;50.806;12.882;2022-09-01T13:42:52;978.6;;;24.0;31.7
68873;BME280;55907;50.806;12.882;2022-09-01T13:45:53;978.6;;;23.7;31.1
68873;BME280;55907;50.806;12.882;2022-09-01T13:48:53;978.6;;;23.6;32.0
68873;BME280;55907;50.806;12.882;2022-09-01T13:51:54;978.6;;;23.6;32.4
68873;BME280;55907;50.806;12.882;2022-09-01T13:54:56;978.6;;;23.5;32.1
68873;BME280;55907;50.806;12.882;2022-09-01T13:57:57;978.5;;;23.5;32.5
68873;BME280;55907;50.806;12.882;2022-09-01T14:00:58;978.5;;;23.6;33.0
68873;BME280;55907;50.806;12.882;2022-09-01T14:04:00;978.5;;;23.9;33.2
68873;BME280;55907;50.806;12.882;2022-09-01T14:07:01;978.5;;;24.1;32.4
68873;BME280;55907;50.806;12.882;2022-09-01T14:10:03;978.5;;;24.1;33.0
68873;BME280;55907;50.806;12.882;2022-09-01T14:13:04;978.5;;;23.9;33.3
68873;BME280;55907;50.806;12.882;2022-09-01T14:16:08;978.5;;;24.0;33.2
68873;BME280;55907;50.806;12.882;2022-09-01T14:19:06;978.4;;;24.0;32.2
68873;BME280;55907;50.806;12.882;2022-09-01T14:22:08;978.5;;;24.0;32.1
68873;BME280;55907;50.806;12.882;2022-09-01T14:25:09;978.5;;;24.1;32.6
68873;BME280;55907;50.806;12.882;2022-09-01T14:31:14;978.4;;;24.1;31.0
68873;BME280;55907;50.806;12.882;2022-09-01T14:34:13;978.4;;;24.0;30.5
68873;BME280;55907;50.806;12.882;2022-09-01T14:37:15;978.4;;;23.9;31.4
68873;BME280;55907;50.806;12.882;2022-09-01T14:40:18;978.4;;;23.8;30.7
68873;BME280;55907;50.806;12.882;2022-09-01T14:46:19;978.4;;;23.4;31.4
68873;BME280;55907;50.806;12.882;2022-09-01T14:49:20;978.3;;;23.0;30.2
68873;BME280;55907;50.806;12.882;2022-09-01T14:52:22;978.3;;;22.7;31.4
68873;BME280;55907;50.806;12.882;2022-09-01T14:55:25;978.3;;;22.8;32.2
68873;BME280;55907;50.806;12.882;2022-09-01T15:01:26;978.3;;;23.0;32.5
68873;BME280;55907;50.806;12.882;2022-09-01T15:04:27;978.3;;;23.0;31.6
68873;BME280;55907;50.806;12.882;2022-09-01T15:07:28;978.2;;;23.0;31.9
68873;BME280;55907;50.806;12.882;2022-09-01T15:10:30;978.1;;;23.0;31.1
68873;BME280;55907;50.806;12.882;2022-09-01T15:13:31;978.1;;;23.2;31.9
68873;BME280;55907;50.806;12.882;2022-09-01T15:16:35;978.2;;;23.3;33.4
68873;BME280;55907;50.806;12.882;2022-09-01T15:19:34;978.1;;;23.1;33.3
68873;BME280;55907;50.806;12.882;2022-09-01T15:22:35;978.1;;;22.9;33.9
68873;BME280;55907;50.806;12.882;2022-09-01T15:25:37;978.1;;;22.5;35.0
68873;BME280;55907;50.806;12.882;2022-09-01T15:28:38;978.1;;;22.3;35.9
68873;BME280;55907;50.806;12.882;2022-09-01T15:31:41;978.1;;;22.1;36.2
68873;BME280;55907;50.806;12.882;2022-09-01T15:34:41;978.1;;;22.0;37.1
68873;BME280;55907;50.806;12.882;2022-09-01T15:37:44;978.1;;;21.9;37.9
68873;BME280;55907;50.806;12.882;2022-09-01T15:40:44;978.1;;;21.9;37.6
68873;BME280;55907;50.806;12.882;2022-09-01T15:43:45;978.1;;;21.6;38.0
68873;BME280;55907;50.806;12.882;2022-09-01T15:46:46;978.1;;;21.6;37.9
68873;BME280;55907;50.806;12.882;2022-09-01T15:49:48;978.0;;;21.6;38.0
68873;BME280;55907;50.806;12.882;2022-09-01T15:52:51;978.1;;;21.5;37.7
68873;BME280;55907;50.806;12.882;2022-09-01T15:55:50;978.1;;;21.3;37.3
68873;BME280;55907;50.806;12.882;2022-09-01T15:58:52;978.1;;;21.2;37.2
68873;BME280;55907;50.806;12.882;2022-09-01T16:01:53;978.1;;;21.0;36.9
68873;BME280;55907;50.806;12.882;2022-09-01T16:04:54;978.0;;;21.1;37.3
68873;BME280;55907;50.806;12.882;2022-09-01T16:07:56;978.1;;;21.2;36.7
68873;BME280;55907;50.806;12.882;2022-09-01T16:10:57;978.0;;;21.4;36.2
68873;BME280;55907;50.806;12.882;2022-09-01T16:13:59;978.0;;;21.5;36.0
68873;BME280;55907;50.806;12.882;2022-09-01T16:17:03;978.0;;;21.5;35.0
68873;BME280;55907;50.806;12.882;2022-09-01T16:20:07;978.1;;;21.5;34.8
68873;BME280;55907;50.806;12.882;2022-09-01T16:23:09;978.0;;;21.4;34.8
68873;BME280;55907;50.806;12.882;2022-09-01T16:26:04;978.0;;;21.3;35.2
68873;BME280;55907;50.806;12.882;2022-09-01T16:29:11;978.1;;;21.4;35.7
68873;BME280;55907;50.806;12.882;2022-09-01T16:32:07;978.0;;;21.3;35.4
68873;BME280;55907;50.806;12.882;2022-09-01T16:35:08;978.0;;;21.2;35.9
68873;BME280;55907;50.806;12.882;2022-09-01T16:38:29;978.0;;;21.1;36.7
68873;BME280;55907;50.806;12.882;2022-09-01T16:41:14;978.1;;;21.0;37.0
68873;BME280;55907;50.806;12.882;2022-09-01T16:44:19;978.0;;;20.8;38.0
68873;BME280;55907;50.806;12.882;2022-09-01T16:47:24;978.0;;;20.7;38.6
68873;BME280;55907;50.806;12.882;2022-09-01T16:50:23;978.0;;;20.6;39.3
68873;BME280;55907;50.806;12.882;2022-09-01T16:53:26;978.1;;;20.4;40.8
68873;BME280;55907;50.806;12.882;2022-09-01T16:56:23;978.1;;;20.2;42.2
68873;BME280;55907;50.806;12.882;2022-09-01T16:59:25;978.1;;;20.0;43.5
68873;BME280;55907;50.806;12.882;2022-09-01T17:02:32;978.1;;;19.8;44.4
68873;BME280;55907;50.806;12.882;2022-09-01T17:05:25;978.1;;;19.6;46.1
68873;BME280;55907;50.806;12.882;2022-09-01T17:08:26;978.0;;;19.5;45.6
68873;BME280;55907;50.806;12.882;2022-09-01T17:14:34;978.1;;;19.2;46.4
68873;BME280;55907;50.806;12.882;2022-09-01T17:17:32;978.1;;;19.1;46.1
68873;BME280;55907;50.806;12.882;2022-09-01T17:20:32;978.1;;;19.1;45.9
68873;BME280;55907;50.806;12.882;2022-09-01T17:23:34;978.1;;;19.0;45.7
68873;BME280;55907;50.806;12.882;2022-09-01T17:26:32;978.2;;;19.0;45.7
68873;BME280;55907;50.806;12.882;2022-09-01T17:29:39;978.2;;;18.9;45.5
68873;BME280;55907;50.806;12.882;2022-09-01T17:32:46;978.2;;;18.9;45.0
68873;BME280;55907;50.806;12.882;2022-09-01T17:35:41;978.3;;;18.8;45.8
68873;BME280;55907;50.806;12.882;2022-09-01T17:38:43;978.3;;;18.7;45.8